sensor_id;sensor_type;location;lat;lon;timestamp;temperature;humidity
55634;DHT22;41504;53.162;6.788;2023-07-08T00:00:50;19.70;61.80
55634;DHT22;41504;53.162;6.788;2023-07-08T00:03:17;19.60;62.00
55634;DHT22;41504;53.162;6.788;2023-07-08T00:05:44;19.60;62.00
55634;DHT22;41504;53.162;6.788;2023-07-08T00:08:15;19.60;62.00
55634;DHT22;41504;53.162;6.788;2023-07-08T00:10:41;19.50;62.00
55634;DHT22;41504;53.162;6.788;2023-07-08T00:13:10;19.50;62.20
55634;DHT22;41504;53.162;6.788;2023-07-08T00:15:37;19.50;62.10
55634;DHT22;41504;53.162;6.788;2023-07-08T00:18:11;19.50;62.20
55634;DHT22;41504;53.162;6.788;2023-07-08T00:20:43;19.40;62.20
55634;DHT22;41504;53.162;6.788;2023-07-08T00:23:11;19.40;62.30
55634;DHT22;41504;53.162;6.788;2023-07-08T00:25:38;19.30;62.30
55634;DHT22;41504;53.162;6.788;2023-07-08T00:28:10;19.30;62.40
55634;DHT22;41504;53.162;6.788;2023-07-08T00:30:37;19.30;62.50
55634;DHT22;41504;53.162;6.788;2023-07-08T00:33:05;19.30;62.60
55634;DHT22;41504;53.162;6.788;2023-07-08T00:35:32;19.30;62.80
55634;DHT22;41504;53.162;6.788;2023-07-08T00:37:59;19.30;62.80
55634;DHT22;41504;53.162;6.788;2023-07-08T00:40:29;19.20;62.90
55634;DHT22;41504;53.162;6.788;2023-07-08T00:42:56;19.20;63.00
55634;DHT22;41504;53.162;6.788;2023-07-08T00:45:38;19.20;63.10
55634;DHT22;41504;53.162;6.788;2023-07-08T00:48:20;19.10;63.40
55634;DHT22;41504;53.162;6.788;2023-07-08T00:50:47;19.10;63.30
55634;DHT22;41504;53.162;6.788;2023-07-08T00:55:47;19.10;63.40
55634;DHT22;41504;53.162;6.788;2023-07-08T00:58:17;19.10;63.50
55634;DHT22;41504;53.162;6.788;2023-07-08T01:00:45;19.10;63.50
55634;DHT22;41504;53.162;6.788;2023-07-08T01:03:11;19.00;63.70
55634;DHT22;41504;53.162;6.788;2023-07-08T01:05:40;19.00;63.80
55634;DHT22;41504;53.162;6.788;2023-07-08T01:08:07;19.00;64.00
55634;DHT22;41504;53.162;6.788;2023-07-08T01:10:48;19.00;64.10
55634;DHT22;41504;53.162;6.788;2023-07-08T01:13:16;18.90;64.10
55634;DHT22;41504;53.162;6.788;2023-07-08T01:15:47;18.90;64.30
55634;DHT22;41504;53.162;6.788;2023-07-08T01:18:16;18.90;64.40
55634;DHT22;41504;53.162;6.788;2023-07-08T01:20:43;18.90;64.60
55634;DHT22;41504;53.162;6.788;2023-07-08T01:23:12;18.80;64.70
55634;DHT22;41504;53.162;6.788;2023-07-08T01:25:39;18.80;64.90
55634;DHT22;41504;53.162;6.788;2023-07-08T01:28:10;18.80;65.20
55634;DHT22;41504;53.162;6.788;2023-07-08T01:30:40;18.70;65.20
55634;DHT22;41504;53.162;6.788;2023-07-08T01:33:20;18.70;65.40
55634;DHT22;41504;53.162;6.788;2023-07-08T01:35:47;18.70;65.50
55634;DHT22;41504;53.162;6.788;2023-07-08T01:38:18;18.60;65.60
55634;DHT22;41504;53.162;6.788;2023-07-08T01:40:55;18.60;65.70
55634;DHT22;41504;53.162;6.788;2023-07-08T01:43:21;18.60;65.90
55634;DHT22;41504;53.162;6.788;2023-07-08T01:45:48;18.50;65.90
55634;DHT22;41504;53.162;6.788;2023-07-08T01:48:17;18.50;66.20
55634;DHT22;41504;53.162;6.788;2023-07-08T01:51:04;18.50;66.30
55634;DHT22;41504;53.162;6.788;2023-07-08T01:53:35;18.50;66.40
55634;DHT22;41504;53.162;6.788;2023-07-08T01:56:01;18.40;66.40
55634;DHT22;41504;53.162;6.788;2023-07-08T01:58:27;18.40;66.50
55634;DHT22;41504;53.162;6.788;2023-07-08T02:00:53;18.40;66.60
55634;DHT22;41504;53.162;6.788;2023-07-08T02:03:20;18.40;66.80
55634;DHT22;41504;53.162;6.788;2023-07-08T02:05:46;18.40;67.00
55634;DHT22;41504;53.162;6.788;2023-07-08T02:08:12;18.30;67.00
55634;DHT22;41504;53.162;6.788;2023-07-08T02:10:39;18.30;67.20
55634;DHT22;41504;53.162;6.788;2023-07-08T02:13:05;18.30;67.40
55634;DHT22;41504;53.162;6.788;2023-07-08T02:15:31;18.20;67.50
55634;DHT22;41504;53.162;6.788;2023-07-08T02:18:01;18.20;67.70
55634;DHT22;41504;53.162;6.788;2023-07-08T02:20:27;18.20;67.70
55634;DHT22;41504;53.162;6.788;2023-07-08T02:22:52;18.20;67.80
55634;DHT22;41504;53.162;6.788;2023-07-08T02:25:18;18.10;67.90
55634;DHT22;41504;53.162;6.788;2023-07-08T02:27:44;18.10;68.10
55634;DHT22;41504;53.162;6.788;2023-07-08T02:30:10;18.10;68.10
55634;DHT22;41504;53.162;6.788;2023-07-08T02:32:39;18.10;68.20
55634;DHT22;41504;53.162;6.788;2023-07-08T02:35:06;18.10;68.40
55634;DHT22;41504;53.162;6.788;2023-07-08T02:37:32;18.00;68.50
55634;DHT22;41504;53.162;6.788;2023-07-08T02:39:58;18.00;68.60
55634;DHT22;41504;53.162;6.788;2023-07-08T02:42:24;17.90;68.70
55634;DHT22;41504;53.162;6.788;2023-07-08T02:44:50;17.90;68.80
55634;DHT22;41504;53.162;6.788;2023-07-08T02:47:16;17.90;68.80
55634;DHT22;41504;53.162;6.788;2023-07-08T02:49:45;17.90;68.90
55634;DHT22;41504;53.162;6.788;2023-07-08T02:52:11;18.00;69.10
55634;DHT22;41504;53.162;6.788;2023-07-08T02:54:38;17.90;69.20
55634;DHT22;41504;53.162;6.788;2023-07-08T02:57:03;17.90;69.20
55634;DHT22;41504;53.162;6.788;2023-07-08T02:59:29;17.80;69.30
55634;DHT22;41504;53.162;6.788;2023-07-08T03:01:55;17.80;69.30
55634;DHT22;41504;53.162;6.788;2023-07-08T03:04:21;17.80;69.60
55634;DHT22;41504;53.162;6.788;2023-07-08T03:06:50;17.70;69.60
55634;DHT22;41504;53.162;6.788;2023-07-08T03:09:16;17.70;69.80
55634;DHT22;41504;53.162;6.788;2023-07-08T03:11:43;17.70;69.80
55634;DHT22;41504;53.162;6.788;2023-07-08T03:14:09;17.70;69.90
55634;DHT22;41504;53.162;6.788;2023-07-08T03:16:34;17.70;70.10
55634;DHT22;41504;53.162;6.788;2023-07-08T03:19:00;17.60;70.10
55634;DHT22;41504;53.162;6.788;2023-07-08T03:21:26;17.60;70.30
55634;DHT22;41504;53.162;6.788;2023-07-08T03:23:52;17.50;70.40
55634;DHT22;41504;53.162;6.788;2023-07-08T03:26:24;17.60;70.60
55634;DHT22;41504;53.162;6.788;2023-07-08T03:28:50;17.50;70.70
55634;DHT22;41504;53.162;6.788;2023-07-08T03:31:16;17.50;70.70
55634;DHT22;41504;53.162;6.788;2023-07-08T03:33:43;17.50;70.90
55634;DHT22;41504;53.162;6.788;2023-07-08T03:36:14;17.50;70.90
55634;DHT22;41504;53.162;6.788;2023-07-08T03:38:54;17.40;70.90
55634;DHT22;41504;53.162;6.788;2023-07-08T03:41:21;17.40;71.00
55634;DHT22;41504;53.162;6.788;2023-07-08T03:43:47;17.40;71.20
55634;DHT22;41504;53.162;6.788;2023-07-08T03:46:17;17.40;71.20
55634;DHT22;41504;53.162;6.788;2023-07-08T03:48:43;17.40;71.30
55634;DHT22;41504;53.162;6.788;2023-07-08T03:51:30;17.30;71.30
55634;DHT22;41504;53.162;6.788;2023-07-08T03:53:57;17.30;71.40
55634;DHT22;41504;53.162;6.788;2023-07-08T03:56:23;17.30;71.70
55634;DHT22;41504;53.162;6.788;2023-07-08T03:58:50;17.30;71.80
55634;DHT22;41504;53.162;6.788;2023-07-08T04:01:21;17.30;71.90
55634;DHT22;41504;53.162;6.788;2023-07-08T04:03:51;17.30;71.90
55634;DHT22;41504;53.162;6.788;2023-07-08T04:06:18;17.30;71.80
55634;DHT22;41504;53.162;6.788;2023-07-08T04:08:43;17.20;72.00
55634;DHT22;41504;53.162;6.788;2023-07-08T04:11:20;17.20;72.10
55634;DHT22;41504;53.162;6.788;2023-07-08T04:13:47;17.30;72.00
55634;DHT22;41504;53.162;6.788;2023-07-08T04:16:23;17.30;72.10
55634;DHT22;41504;53.162;6.788;2023-07-08T04:18:54;17.30;72.00
55634;DHT22;41504;53.162;6.788;2023-07-08T04:21:22;17.30;72.20
55634;DHT22;41504;53.162;6.788;2023-07-08T04:23:49;17.30;72.20
55634;DHT22;41504;53.162;6.788;2023-07-08T04:26:14;17.30;72.10
55634;DHT22;41504;53.162;6.788;2023-07-08T04:28:42;17.30;72.20
55634;DHT22;41504;53.162;6.788;2023-07-08T04:31:10;17.30;72.30
55634;DHT22;41504;53.162;6.788;2023-07-08T04:33:40;17.40;72.30
55634;DHT22;41504;53.162;6.788;2023-07-08T04:36:12;17.40;72.50
55634;DHT22;41504;53.162;6.788;2023-07-08T04:38:38;17.40;72.40
55634;DHT22;41504;53.162;6.788;2023-07-08T04:41:09;17.40;72.20
55634;DHT22;41504;53.162;6.788;2023-07-08T04:43:35;17.50;72.60
55634;DHT22;41504;53.162;6.788;2023-07-08T04:46:01;17.50;72.50
55634;DHT22;41504;53.162;6.788;2023-07-08T04:48:27;17.50;72.60
55634;DHT22;41504;53.162;6.788;2023-07-08T04:50:53;17.60;72.60
55634;DHT22;41504;53.162;6.788;2023-07-08T04:53:19;17.70;72.50
55634;DHT22;41504;53.162;6.788;2023-07-08T04:55:52;17.70;72.40
55634;DHT22;41504;53.162;6.788;2023-07-08T04:58:18;17.80;72.30
55634;DHT22;41504;53.162;6.788;2023-07-08T05:00:44;17.90;72.30
55634;DHT22;41504;53.162;6.788;2023-07-08T05:03:10;18.00;72.20
55634;DHT22;41504;53.162;6.788;2023-07-08T05:05:35;18.10;72.10
55634;DHT22;41504;53.162;6.788;2023-07-08T05:08:02;18.20;72.10
55634;DHT22;41504;53.162;6.788;2023-07-08T05:10:28;18.20;71.90
55634;DHT22;41504;53.162;6.788;2023-07-08T05:12:54;18.30;71.80
55634;DHT22;41504;53.162;6.788;2023-07-08T05:15:20;18.40;71.90
55634;DHT22;41504;53.162;6.788;2023-07-08T05:17:46;18.50;71.70
55634;DHT22;41504;53.162;6.788;2023-07-08T05:22:50;18.60;71.30
55634;DHT22;41504;53.162;6.788;2023-07-08T05:25:18;18.70;71.10
55634;DHT22;41504;53.162;6.788;2023-07-08T05:27:44;18.80;71.00
55634;DHT22;41504;53.162;6.788;2023-07-08T05:30:14;18.90;70.70
55634;DHT22;41504;53.162;6.788;2023-07-08T05:32:40;19.00;70.60
55634;DHT22;41504;53.162;6.788;2023-07-08T05:35:09;19.00;70.50
55634;DHT22;41504;53.162;6.788;2023-07-08T05:37:35;19.10;70.30
55634;DHT22;41504;53.162;6.788;2023-07-08T05:40:01;19.20;70.30
55634;DHT22;41504;53.162;6.788;2023-07-08T05:42:30;19.30;70.30
55634;DHT22;41504;53.162;6.788;2023-07-08T05:44:56;19.30;70.20
55634;DHT22;41504;53.162;6.788;2023-07-08T05:47:22;19.40;70.10
55634;DHT22;41504;53.162;6.788;2023-07-08T05:49:48;19.40;70.00
55634;DHT22;41504;53.162;6.788;2023-07-08T05:52:13;19.50;69.90
55634;DHT22;41504;53.162;6.788;2023-07-08T05:54:40;19.60;69.80
55634;DHT22;41504;53.162;6.788;2023-07-08T05:57:11;19.60;69.60
55634;DHT22;41504;53.162;6.788;2023-07-08T05:59:40;19.70;69.50
55634;DHT22;41504;53.162;6.788;2023-07-08T06:02:09;19.70;69.50
55634;DHT22;41504;53.162;6.788;2023-07-08T06:04:35;19.70;69.60
55634;DHT22;41504;53.162;6.788;2023-07-08T06:07:01;19.80;69.50
55634;DHT22;41504;53.162;6.788;2023-07-08T06:09:27;19.80;69.40
55634;DHT22;41504;53.162;6.788;2023-07-08T06:11:53;19.90;69.30
55634;DHT22;41504;53.162;6.788;2023-07-08T06:14:18;19.90;69.30
55634;DHT22;41504;53.162;6.788;2023-07-08T06:16:44;19.90;69.20
55634;DHT22;41504;53.162;6.788;2023-07-08T06:19:10;20.00;69.00
55634;DHT22;41504;53.162;6.788;2023-07-08T06:21:37;20.10;69.00
55634;DHT22;41504;53.162;6.788;2023-07-08T06:24:03;20.10;68.70
55634;DHT22;41504;53.162;6.788;2023-07-08T06:26:29;20.20;68.50
55634;DHT22;41504;53.162;6.788;2023-07-08T06:28:55;20.30;68.50
55634;DHT22;41504;53.162;6.788;2023-07-08T06:31:21;20.30;68.20
55634;DHT22;41504;53.162;6.788;2023-07-08T06:33:46;20.30;68.20
55634;DHT22;41504;53.162;6.788;2023-07-08T06:36:12;20.40;68.20
55634;DHT22;41504;53.162;6.788;2023-07-08T06:38:38;20.40;68.10
55634;DHT22;41504;53.162;6.788;2023-07-08T06:41:04;20.50;68.00
55634;DHT22;41504;53.162;6.788;2023-07-08T06:43:29;20.60;67.70
55634;DHT22;41504;53.162;6.788;2023-07-08T06:45:55;20.60;67.60
55634;DHT22;41504;53.162;6.788;2023-07-08T06:48:21;20.70;67.60
55634;DHT22;41504;53.162;6.788;2023-07-08T06:50:48;20.70;67.40
55634;DHT22;41504;53.162;6.788;2023-07-08T06:53:14;20.80;67.20
55634;DHT22;41504;53.162;6.788;2023-07-08T06:55:40;20.80;67.20
55634;DHT22;41504;53.162;6.788;2023-07-08T06:58:09;20.90;67.20
55634;DHT22;41504;53.162;6.788;2023-07-08T07:00:35;21.00;67.00
55634;DHT22;41504;53.162;6.788;2023-07-08T07:03:00;21.10;66.80
55634;DHT22;41504;53.162;6.788;2023-07-08T07:05:26;21.10;66.60
55634;DHT22;41504;53.162;6.788;2023-07-08T07:07:52;21.20;66.60
55634;DHT22;41504;53.162;6.788;2023-07-08T07:10:19;21.30;66.40
55634;DHT22;41504;53.162;6.788;2023-07-08T07:12:45;21.40;66.50
55634;DHT22;41504;53.162;6.788;2023-07-08T07:15:11;21.40;66.20
55634;DHT22;41504;53.162;6.788;2023-07-08T07:17:39;21.50;66.00
55634;DHT22;41504;53.162;6.788;2023-07-08T07:20:09;21.60;66.10
55634;DHT22;41504;53.162;6.788;2023-07-08T07:22:35;21.70;66.00
55634;DHT22;41504;53.162;6.788;2023-07-08T07:25:01;21.80;65.60
55634;DHT22;41504;53.162;6.788;2023-07-08T07:27:27;21.90;65.20
55634;DHT22;41504;53.162;6.788;2023-07-08T07:29:53;21.80;64.80
55634;DHT22;41504;53.162;6.788;2023-07-08T07:32:22;22.00;64.50
55634;DHT22;41504;53.162;6.788;2023-07-08T07:34:50;22.10;64.00
55634;DHT22;41504;53.162;6.788;2023-07-08T07:37:18;22.10;63.90
55634;DHT22;41504;53.162;6.788;2023-07-08T07:39:47;22.20;63.70
55634;DHT22;41504;53.162;6.788;2023-07-08T07:42:14;22.30;63.80
55634;DHT22;41504;53.162;6.788;2023-07-08T07:44:41;22.30;63.60
55634;DHT22;41504;53.162;6.788;2023-07-08T07:47:10;22.40;63.20
55634;DHT22;41504;53.162;6.788;2023-07-08T07:49:39;22.50;63.20
55634;DHT22;41504;53.162;6.788;2023-07-08T07:52:08;22.50;62.50
55634;DHT22;41504;53.162;6.788;2023-07-08T07:54:39;22.60;62.60
55634;DHT22;41504;53.162;6.788;2023-07-08T07:57:05;22.70;62.60
55634;DHT22;41504;53.162;6.788;2023-07-08T07:59:32;22.70;62.50
55634;DHT22;41504;53.162;6.788;2023-07-08T08:01:57;22.80;62.50
55634;DHT22;41504;53.162;6.788;2023-07-08T08:04:23;22.90;62.40
55634;DHT22;41504;53.162;6.788;2023-07-08T08:06:49;23.00;62.10
55634;DHT22;41504;53.162;6.788;2023-07-08T08:09:15;23.00;61.90
55634;DHT22;41504;53.162;6.788;2023-07-08T08:11:41;23.10;62.10
55634;DHT22;41504;53.162;6.788;2023-07-08T08:14:09;23.20;61.90
55634;DHT22;41504;53.162;6.788;2023-07-08T08:16:35;23.20;61.70
55634;DHT22;41504;53.162;6.788;2023-07-08T08:19:01;23.30;61.40
55634;DHT22;41504;53.162;6.788;2023-07-08T08:21:27;23.30;61.70
55634;DHT22;41504;53.162;6.788;2023-07-08T08:23:52;23.40;61.00
55634;DHT22;41504;53.162;6.788;2023-07-08T08:26:18;23.50;61.30
55634;DHT22;41504;53.162;6.788;2023-07-08T08:28:44;23.50;61.10
55634;DHT22;41504;53.162;6.788;2023-07-08T08:31:10;23.60;60.90
55634;DHT22;41504;53.162;6.788;2023-07-08T08:33:35;23.70;60.60
55634;DHT22;41504;53.162;6.788;2023-07-08T08:36:01;23.70;60.60
55634;DHT22;41504;53.162;6.788;2023-07-08T08:38:27;23.80;60.50
55634;DHT22;41504;53.162;6.788;2023-07-08T08:40:52;24.00;60.00
55634;DHT22;41504;53.162;6.788;2023-07-08T08:43:23;24.00;59.70
55634;DHT22;41504;53.162;6.788;2023-07-08T08:46:04;24.10;60.10
55634;DHT22;41504;53.162;6.788;2023-07-08T08:48:35;24.20;59.30
55634;DHT22;41504;53.162;6.788;2023-07-08T08:51:14;24.20;59.10
55634;DHT22;41504;53.162;6.788;2023-07-08T08:53:40;24.30;58.90
55634;DHT22;41504;53.162;6.788;2023-07-08T08:56:14;24.40;59.00
55634;DHT22;41504;53.162;6.788;2023-07-08T09:01:16;24.60;58.50
55634;DHT22;41504;53.162;6.788;2023-07-08T09:03:46;24.70;58.30
55634;DHT22;41504;53.162;6.788;2023-07-08T09:06:16;24.80;58.00
55634;DHT22;41504;53.162;6.788;2023-07-08T09:08:44;24.90;57.90
55634;DHT22;41504;53.162;6.788;2023-07-08T09:13:50;25.10;57.60
55634;DHT22;41504;53.162;6.788;2023-07-08T09:19:25;25.30;57.50
55634;DHT22;41504;53.162;6.788;2023-07-08T09:24:49;25.50;56.80
55634;DHT22;41504;53.162;6.788;2023-07-08T09:27:16;25.60;56.40
55634;DHT22;41504;53.162;6.788;2023-07-08T09:29:42;25.60;55.90
55634;DHT22;41504;53.162;6.788;2023-07-08T09:34:46;25.80;55.70
55634;DHT22;41504;53.162;6.788;2023-07-08T09:37:27;25.90;55.50
55634;DHT22;41504;53.162;6.788;2023-07-08T09:39:54;25.90;55.60
55634;DHT22;41504;53.162;6.788;2023-07-08T09:42:22;26.00;55.70
55634;DHT22;41504;53.162;6.788;2023-07-08T09:44:57;26.10;55.30
55634;DHT22;41504;53.162;6.788;2023-07-08T09:47:35;26.20;54.80
55634;DHT22;41504;53.162;6.788;2023-07-08T09:50:04;26.30;54.20
55634;DHT22;41504;53.162;6.788;2023-07-08T09:52:37;26.40;53.70
55634;DHT22;41504;53.162;6.788;2023-07-08T09:55:03;26.40;53.80
55634;DHT22;41504;53.162;6.788;2023-07-08T09:57:31;26.50;53.90
55634;DHT22;41504;53.162;6.788;2023-07-08T10:00:00;26.60;53.90
55634;DHT22;41504;53.162;6.788;2023-07-08T10:04:56;26.80;53.10
55634;DHT22;41504;53.162;6.788;2023-07-08T10:07:23;26.90;53.10
55634;DHT22;41504;53.162;6.788;2023-07-08T10:09:51;27.00;53.20
55634;DHT22;41504;53.162;6.788;2023-07-08T10:12:20;27.10;53.10
55634;DHT22;41504;53.162;6.788;2023-07-08T10:14:54;27.20;52.80
55634;DHT22;41504;53.162;6.788;2023-07-08T10:17:22;27.20;52.40
55634;DHT22;41504;53.162;6.788;2023-07-08T10:19:48;27.30;52.20
55634;DHT22;41504;53.162;6.788;2023-07-08T10:23:37;27.40;51.80
55634;DHT22;41504;53.162;6.788;2023-07-08T10:31:30;27.70;51.90
55634;DHT22;41504;53.162;6.788;2023-07-08T10:34:00;27.80;52.00
55634;DHT22;41504;53.162;6.788;2023-07-08T10:44:37;28.10;50.70
55634;DHT22;41504;53.162;6.788;2023-07-08T10:47:23;28.20;50.60
55634;DHT22;41504;53.162;6.788;2023-07-08T10:52:48;28.30;50.20
55634;DHT22;41504;53.162;6.788;2023-07-08T10:55:38;28.40;50.40
55634;DHT22;41504;53.162;6.788;2023-07-08T11:09:07;28.80;49.10
55634;DHT22;41504;53.162;6.788;2023-07-08T11:12:00;28.90;49.10
55634;DHT22;41504;53.162;6.788;2023-07-08T11:14:46;29.00;48.70
55634;DHT22;41504;53.162;6.788;2023-07-08T11:17:32;29.10;48.40
55634;DHT22;41504;53.162;6.788;2023-07-08T11:20:13;29.10;48.40
55634;DHT22;41504;53.162;6.788;2023-07-08T11:22:49;29.20;48.40
55634;DHT22;41504;53.162;6.788;2023-07-08T11:25:20;29.30;48.10
55634;DHT22;41504;53.162;6.788;2023-07-08T11:27:50;29.40;47.80
55634;DHT22;41504;53.162;6.788;2023-07-08T11:30:21;29.50;47.60
55634;DHT22;41504;53.162;6.788;2023-07-08T11:32:49;29.60;47.70
55634;DHT22;41504;53.162;6.788;2023-07-08T11:35:23;29.60;46.90
55634;DHT22;41504;53.162;6.788;2023-07-08T11:37:52;29.70;46.80
55634;DHT22;41504;53.162;6.788;2023-07-08T11:40:20;29.80;46.70
55634;DHT22;41504;53.162;6.788;2023-07-08T11:42:52;29.80;46.60
55634;DHT22;41504;53.162;6.788;2023-07-08T11:47:48;30.00;46.20
55634;DHT22;41504;53.162;6.788;2023-07-08T11:50:30;30.10;46.00
55634;DHT22;41504;53.162;6.788;2023-07-08T11:53:02;30.10;45.30
55634;DHT22;41504;53.162;6.788;2023-07-08T11:55:46;30.20;45.30
55634;DHT22;41504;53.162;6.788;2023-07-08T11:58:49;30.30;45.40
55634;DHT22;41504;53.162;6.788;2023-07-08T12:02:00;30.40;46.00
55634;DHT22;41504;53.162;6.788;2023-07-08T12:05:04;30.50;45.00
55634;DHT22;41504;53.162;6.788;2023-07-08T12:07:47;30.60;45.00
55634;DHT22;41504;53.162;6.788;2023-07-08T12:10:30;30.60;43.60
55634;DHT22;41504;53.162;6.788;2023-07-08T12:12:57;30.70;43.70
55634;DHT22;41504;53.162;6.788;2023-07-08T12:15:30;30.80;43.70
55634;DHT22;41504;53.162;6.788;2023-07-08T12:18:13;30.90;43.90
55634;DHT22;41504;53.162;6.788;2023-07-08T12:20:41;30.90;43.40
55634;DHT22;41504;53.162;6.788;2023-07-08T12:23:22;30.90;43.00
55634;DHT22;41504;53.162;6.788;2023-07-08T12:25:48;31.00;43.50
55634;DHT22;41504;53.162;6.788;2023-07-08T12:28:14;31.10;43.60
55634;DHT22;41504;53.162;6.788;2023-07-08T12:30:42;31.20;42.70
55634;DHT22;41504;53.162;6.788;2023-07-08T12:33:16;31.20;42.70
55634;DHT22;41504;53.162;6.788;2023-07-08T12:35:44;31.20;42.40
55634;DHT22;41504;53.162;6.788;2023-07-08T12:38:26;31.30;42.80
55634;DHT22;41504;53.162;6.788;2023-07-08T12:40:56;31.30;42.70
55634;DHT22;41504;53.162;6.788;2023-07-08T12:43:23;31.40;42.70
55634;DHT22;41504;53.162;6.788;2023-07-08T12:45:49;31.50;42.60
55634;DHT22;41504;53.162;6.788;2023-07-08T12:48:14;31.50;42.10
55634;DHT22;41504;53.162;6.788;2023-07-08T12:50:40;31.50;42.40
55634;DHT22;41504;53.162;6.788;2023-07-08T12:53:06;31.60;42.10
55634;DHT22;41504;53.162;6.788;2023-07-08T12:55:39;31.70;42.10
55634;DHT22;41504;53.162;6.788;2023-07-08T12:58:13;31.80;41.80
55634;DHT22;41504;53.162;6.788;2023-07-08T13:00:40;31.80;41.60
55634;DHT22;41504;53.162;6.788;2023-07-08T13:03:19;31.80;42.60
55634;DHT22;41504;53.162;6.788;2023-07-08T13:05:50;31.90;41.80
55634;DHT22;41504;53.162;6.788;2023-07-08T13:08:18;32.00;41.50
55634;DHT22;41504;53.162;6.788;2023-07-08T13:10:45;32.10;41.70
55634;DHT22;41504;53.162;6.788;2023-07-08T13:13:21;32.20;41.50
55634;DHT22;41504;53.162;6.788;2023-07-08T13:15:47;32.30;41.60
55634;DHT22;41504;53.162;6.788;2023-07-08T13:18:28;32.30;41.30
55634;DHT22;41504;53.162;6.788;2023-07-08T13:20:55;32.40;41.50
55634;DHT22;41504;53.162;6.788;2023-07-08T13:23:24;32.40;41.40
55634;DHT22;41504;53.162;6.788;2023-07-08T13:25:52;32.40;41.20
55634;DHT22;41504;53.162;6.788;2023-07-08T13:28:26;32.50;40.90
55634;DHT22;41504;53.162;6.788;2023-07-08T13:30:55;32.50;40.40
55634;DHT22;41504;53.162;6.788;2023-07-08T13:33:22;32.50;40.30
55634;DHT22;41504;53.162;6.788;2023-07-08T13:35:50;32.60;40.70
55634;DHT22;41504;53.162;6.788;2023-07-08T13:38:20;32.70;40.70
55634;DHT22;41504;53.162;6.788;2023-07-08T13:40:49;32.70;40.50
55634;DHT22;41504;53.162;6.788;2023-07-08T13:43:15;32.80;40.70
55634;DHT22;41504;53.162;6.788;2023-07-08T13:45:45;32.90;40.30
55634;DHT22;41504;53.162;6.788;2023-07-08T13:48:36;32.90;39.80
55634;DHT22;41504;53.162;6.788;2023-07-08T13:53:45;33.00;39.80
55634;DHT22;41504;53.162;6.788;2023-07-08T13:56:19;33.00;40.00
55634;DHT22;41504;53.162;6.788;2023-07-08T13:58:48;33.00;40.00
55634;DHT22;41504;53.162;6.788;2023-07-08T14:01:20;33.10;39.80
55634;DHT22;41504;53.162;6.788;2023-07-08T14:03:46;33.10;40.10
55634;DHT22;41504;53.162;6.788;2023-07-08T14:06:18;33.20;39.80
55634;DHT22;41504;53.162;6.788;2023-07-08T14:08:44;33.20;40.00
55634;DHT22;41504;53.162;6.788;2023-07-08T14:11:10;33.30;39.80
55634;DHT22;41504;53.162;6.788;2023-07-08T14:13:36;33.30;38.50
55634;DHT22;41504;53.162;6.788;2023-07-08T14:16:03;33.30;39.20
55634;DHT22;41504;53.162;6.788;2023-07-08T14:18:32;33.40;39.20
55634;DHT22;41504;53.162;6.788;2023-07-08T14:20:57;33.40;38.10
55634;DHT22;41504;53.162;6.788;2023-07-08T14:23:24;33.60;37.90
55634;DHT22;41504;53.162;6.788;2023-07-08T14:25:50;33.60;37.50
55634;DHT22;41504;53.162;6.788;2023-07-08T14:28:15;33.60;37.50
55634;DHT22;41504;53.162;6.788;2023-07-08T14:30:44;33.60;37.30
55634;DHT22;41504;53.162;6.788;2023-07-08T14:33:11;33.70;37.30
55634;DHT22;41504;53.162;6.788;2023-07-08T14:35:37;33.70;36.90
55634;DHT22;41504;53.162;6.788;2023-07-08T14:38:11;33.80;37.20
55634;DHT22;41504;53.162;6.788;2023-07-08T14:40:39;33.90;37.20
55634;DHT22;41504;53.162;6.788;2023-07-08T14:43:06;33.90;36.60
55634;DHT22;41504;53.162;6.788;2023-07-08T14:45:46;33.90;36.40
55634;DHT22;41504;53.162;6.788;2023-07-08T14:48:13;33.90;36.40
55634;DHT22;41504;53.162;6.788;2023-07-08T14:50:39;33.90;36.20
55634;DHT22;41504;53.162;6.788;2023-07-08T14:53:05;34.00;35.80
55634;DHT22;41504;53.162;6.788;2023-07-08T14:55:32;34.00;35.70
55634;DHT22;41504;53.162;6.788;2023-07-08T14:57:58;34.10;36.10
55634;DHT22;41504;53.162;6.788;2023-07-08T15:00:24;34.10;35.90
55634;DHT22;41504;53.162;6.788;2023-07-08T15:02:51;34.10;35.80
55634;DHT22;41504;53.162;6.788;2023-07-08T15:07:48;34.20;36.10
55634;DHT22;41504;53.162;6.788;2023-07-08T15:10:13;34.20;35.90
55634;DHT22;41504;53.162;6.788;2023-07-08T15:12:39;34.20;36.00
55634;DHT22;41504;53.162;6.788;2023-07-08T15:15:09;34.20;35.70
55634;DHT22;41504;53.162;6.788;2023-07-08T15:17:39;34.30;35.70
55634;DHT22;41504;53.162;6.788;2023-07-08T15:20:10;34.20;35.50
55634;DHT22;41504;53.162;6.788;2023-07-08T15:22:38;34.30;35.90
55634;DHT22;41504;53.162;6.788;2023-07-08T15:25:05;34.30;35.60
55634;DHT22;41504;53.162;6.788;2023-07-08T15:27:31;34.30;35.10
55634;DHT22;41504;53.162;6.788;2023-07-08T15:29:57;34.30;35.80
55634;DHT22;41504;53.162;6.788;2023-07-08T15:32:23;34.30;35.40
55634;DHT22;41504;53.162;6.788;2023-07-08T15:34:48;34.40;35.70
55634;DHT22;41504;53.162;6.788;2023-07-08T15:37:14;34.40;35.40
55634;DHT22;41504;53.162;6.788;2023-07-08T15:39:40;34.50;35.30
55634;DHT22;41504;53.162;6.788;2023-07-08T15:42:11;34.60;35.30
55634;DHT22;41504;53.162;6.788;2023-07-08T15:44:38;34.60;35.30
55634;DHT22;41504;53.162;6.788;2023-07-08T15:47:04;34.60;35.40
55634;DHT22;41504;53.162;6.788;2023-07-08T15:49:32;34.60;35.40
55634;DHT22;41504;53.162;6.788;2023-07-08T15:51:59;34.60;35.20
55634;DHT22;41504;53.162;6.788;2023-07-08T15:54:25;34.70;35.10
55634;DHT22;41504;53.162;6.788;2023-07-08T15:56:53;34.70;35.40
55634;DHT22;41504;53.162;6.788;2023-07-08T15:59:27;34.80;35.70
55634;DHT22;41504;53.162;6.788;2023-07-08T16:01:54;34.80;35.80
55634;DHT22;41504;53.162;6.788;2023-07-08T16:04:26;34.80;35.30
55634;DHT22;41504;53.162;6.788;2023-07-08T16:06:53;34.80;35.60
55634;DHT22;41504;53.162;6.788;2023-07-08T16:09:19;34.80;35.20
55634;DHT22;41504;53.162;6.788;2023-07-08T16:11:45;34.80;35.10
55634;DHT22;41504;53.162;6.788;2023-07-08T16:14:15;34.90;34.70
55634;DHT22;41504;53.162;6.788;2023-07-08T16:16:42;34.70;34.70
55634;DHT22;41504;53.162;6.788;2023-07-08T16:19:10;34.70;35.10
55634;DHT22;41504;53.162;6.788;2023-07-08T16:21:37;34.70;35.40
55634;DHT22;41504;53.162;6.788;2023-07-08T16:24:03;34.80;35.10
55634;DHT22;41504;53.162;6.788;2023-07-08T16:26:29;34.70;35.10
55634;DHT22;41504;53.162;6.788;2023-07-08T16:28:55;34.80;35.30
55634;DHT22;41504;53.162;6.788;2023-07-08T16:31:24;34.80;35.50
55634;DHT22;41504;53.162;6.788;2023-07-08T16:33:50;34.80;35.50
55634;DHT22;41504;53.162;6.788;2023-07-08T16:36:24;34.80;35.20
55634;DHT22;41504;53.162;6.788;2023-07-08T16:38:50;34.80;35.60